createdAt,value
2023-03-02T00:00:03.036Z,69.13
2023-03-02T00:00:35.842Z,69.23
2023-03-02T00:01:08.292Z,69.34
2023-03-02T00:01:40.962Z,69.23
2023-03-02T00:02:13.483Z,69.34
2023-03-02T00:02:46.016Z,69.34
2023-03-02T00:03:18.453Z,69.13
2023-03-02T00:03:50.956Z,69.37
2023-03-02T00:04:23.492Z,69.89
2023-03-02T00:04:55.972Z,70.00
2023-03-02T00:05:28.522Z,70.31
2023-03-02T00:06:01.050Z,70.31
2023-03-02T00:06:33.930Z,70.41
2023-03-02T00:07:06.104Z,70.62
2023-03-02T00:07:38.570Z,70.62
2023-03-02T00:08:11.015Z,70.52
2023-03-02T00:08:43.513Z,70.41
2023-03-02T00:09:15.965Z,70.41
2023-03-02T00:09:48.416Z,70.52
2023-03-02T00:10:20.884Z,70.94
2023-03-02T00:10:53.384Z,71.25
2023-03-02T00:11:25.848Z,71.08
2023-03-02T00:11:58.321Z,71.08
2023-03-02T00:12:30.778Z,71.18
2023-03-02T00:13:03.267Z,71.18
2023-03-02T00:13:35.711Z,71.08
2023-03-02T00:14:08.178Z,70.86
2023-03-02T00:14:40.623Z,71.08
2023-03-02T00:15:13.099Z,71.28
2023-03-02T00:15:45.652Z,71.28
2023-03-02T00:16:18.170Z,71.49
2023-03-02T00:16:50.520Z,71.59
2023-03-02T00:17:22.993Z,71.59
2023-03-02T00:17:55.462Z,71.39
2023-03-02T00:18:27.939Z,71.49
2023-03-02T00:19:00.390Z,71.59
2023-03-02T00:19:32.880Z,71.59
2023-03-02T00:20:05.364Z,71.59
2023-03-02T00:20:37.832Z,71.59
2023-03-02T00:21:10.250Z,71.70
2023-03-02T00:21:42.723Z,71.59
2023-03-02T00:22:15.169Z,71.91
2023-03-02T00:22:47.638Z,71.94
2023-03-02T00:23:20.092Z,72.05
2023-03-02T00:23:52.566Z,71.94
2023-03-02T00:24:25.027Z,71.80
2023-03-02T00:24:57.492Z,71.70
2023-03-02T00:25:29.995Z,71.80
2023-03-02T00:26:02.458Z,71.91
2023-03-02T00:26:34.915Z,71.91
2023-03-02T00:27:07.431Z,71.94
2023-03-02T00:27:39.878Z,71.84
2023-03-02T00:28:12.376Z,71.84
2023-03-02T00:28:44.821Z,71.84
2023-03-02T00:29:17.275Z,71.84
2023-03-02T00:29:49.776Z,71.84
2023-03-02T00:30:22.195Z,71.84
2023-03-02T00:30:54.653Z,71.94
2023-03-02T00:31:27.164Z,71.94
2023-03-02T00:31:59.633Z,71.94
2023-03-02T00:32:32.140Z,72.05
2023-03-02T00:33:04.526Z,72.05
2023-03-02T00:33:36.970Z,71.94
2023-03-02T00:34:09.437Z,71.94
2023-03-02T00:34:41.900Z,71.84
2023-03-02T00:35:14.361Z,71.94
2023-03-02T00:35:46.938Z,71.94
2023-03-02T00:36:19.291Z,71.94
2023-03-02T00:36:51.798Z,71.94
2023-03-02T00:37:24.248Z,71.94
2023-03-02T00:37:56.721Z,71.94
2023-03-02T00:38:29.190Z,71.94
2023-03-02T00:39:01.654Z,72.05
2023-03-02T00:39:34.209Z,72.05
2023-03-02T00:40:06.701Z,72.15
2023-03-02T00:40:39.136Z,72.15
2023-03-02T00:41:11.607Z,72.15
2023-03-02T00:41:44.134Z,72.15
2023-03-02T00:42:16.566Z,72.15
2023-03-02T00:42:49.023Z,72.15
2023-03-02T00:43:21.489Z,72.15
2023-03-02T00:43:54.007Z,72.15
2023-03-02T00:44:26.467Z,72.15
2023-03-02T00:44:58.936Z,72.25
2023-03-02T00:45:31.426Z,72.25
2023-03-02T00:46:03.874Z,72.25
2023-03-02T00:46:36.499Z,72.25
2023-03-02T00:47:08.787Z,72.36
2023-03-02T00:47:41.668Z,72.36
2023-03-02T00:48:13.725Z,72.47
2023-03-02T00:48:46.187Z,72.47
2023-03-02T00:49:18.661Z,72.47
2023-03-02T00:49:51.153Z,72.47
2023-03-02T00:50:23.587Z,72.47
2023-03-02T00:50:56.032Z,72.47
2023-03-02T00:51:28.474Z,72.57
2023-03-02T00:52:00.985Z,72.67
2023-03-02T00:52:33.479Z,72.67
2023-03-02T00:53:05.935Z,72.78
2023-03-02T00:53:38.415Z,72.78
2023-03-02T00:54:10.873Z,72.78
2023-03-02T00:54:43.337Z,72.78
2023-03-02T00:55:15.791Z,72.88
2023-03-02T00:55:48.309Z,72.88
2023-03-02T00:56:20.800Z,72.88
2023-03-02T00:56:53.263Z,72.88
2023-03-02T00:57:25.797Z,72.88
2023-03-02T00:57:58.266Z,72.88
2023-03-02T00:58:30.747Z,72.99
2023-03-02T00:59:03.213Z,72.88
2023-03-02T00:59:35.710Z,72.88
2023-03-02T01:00:08.162Z,72.88
2023-03-02T01:00:40.625Z,72.88
2023-03-02T01:01:13.107Z,72.88
2023-03-02T01:01:45.553Z,72.88
2023-03-02T01:02:18.035Z,72.88
2023-03-02T01:02:50.635Z,73.09
2023-03-02T01:03:23.098Z,73.09
2023-03-02T01:03:55.516Z,72.99
2023-03-02T01:04:28.019Z,72.99
2023-03-02T01:05:00.472Z,73.13
2023-03-02T01:05:32.950Z,73.13
2023-03-02T01:06:05.468Z,73.23
2023-03-02T01:06:37.918Z,73.33
2023-03-02T01:07:10.398Z,73.44
2023-03-02T01:07:42.897Z,73.33
2023-03-02T01:08:15.392Z,73.30
2023-03-02T01:08:47.952Z,73.33
2023-03-02T01:09:20.360Z,73.33
2023-03-02T01:09:52.821Z,73.33
2023-03-02T01:10:25.314Z,73.33
2023-03-02T01:10:57.801Z,73.33
2023-03-02T01:11:30.287Z,73.33
2023-03-02T01:12:02.741Z,73.33
2023-03-02T01:12:35.180Z,73.44
2023-03-02T01:13:07.642Z,73.65
2023-03-02T01:13:40.132Z,73.65
2023-03-02T01:14:12.599Z,73.54
2023-03-02T01:14:45.095Z,73.54
2023-03-02T01:15:17.563Z,73.44
2023-03-02T01:15:50.714Z,73.54
2023-03-02T01:16:23.198Z,73.54
2023-03-02T01:16:55.634Z,73.65
2023-03-02T01:17:28.092Z,73.65
2023-03-02T01:18:00.537Z,73.75
2023-03-02T01:18:33.011Z,73.75
2023-03-02T01:19:05.487Z,73.65
2023-03-02T01:19:37.988Z,73.75
2023-03-02T01:20:10.450Z,73.75
2023-03-02T01:20:42.933Z,73.65
2023-03-02T01:21:15.397Z,73.75
2023-03-02T01:21:47.900Z,73.65
2023-03-02T01:22:20.334Z,73.65
2023-03-02T01:22:52.815Z,73.54
2023-03-02T01:23:25.385Z,73.86
2023-03-02T01:23:57.845Z,74.07
2023-03-02T01:24:30.432Z,74.17
2023-03-02T01:25:02.869Z,73.96
2023-03-02T01:25:35.355Z,74.17
2023-03-02T01:26:07.837Z,74.31
2023-03-02T01:26:40.324Z,74.27
2023-03-02T01:27:12.807Z,74.07
2023-03-02T01:27:45.251Z,74.07
2023-03-02T01:28:17.727Z,74.31
2023-03-02T01:28:50.983Z,74.21
2023-03-02T01:29:22.689Z,74.31
2023-03-02T01:29:55.165Z,74.21
2023-03-02T01:30:27.690Z,74.10
2023-03-02T01:31:00.154Z,74.21
2023-03-02T01:31:32.715Z,73.99
2023-03-02T01:32:05.214Z,73.99
2023-03-02T01:32:37.718Z,74.10
2023-03-02T01:33:10.115Z,73.99
2023-03-02T01:33:42.649Z,73.99
2023-03-02T01:34:15.105Z,74.41
2023-03-02T01:34:47.552Z,74.41
2023-03-02T01:35:20.069Z,74.41
2023-03-02T01:35:52.563Z,74.52
2023-03-02T01:36:25.009Z,74.41
2023-03-02T01:36:57.540Z,74.41
2023-03-02T01:37:29.996Z,74.66
2023-03-02T01:38:02.463Z,74.87
2023-03-02T01:38:34.951Z,74.76
2023-03-02T01:39:07.402Z,74.97
2023-03-02T01:39:39.861Z,75.18
2023-03-02T01:40:12.314Z,75.39
2023-03-02T01:40:44.784Z,75.29
2023-03-02T01:41:17.229Z,75.29
2023-03-02T01:41:49.717Z,75.39
2023-03-02T01:42:22.196Z,75.29
2023-03-02T01:42:54.653Z,75.39
2023-03-02T01:43:27.132Z,75.49
2023-03-02T01:43:59.574Z,75.60
2023-03-02T01:44:32.021Z,75.81
2023-03-02T01:45:04.478Z,75.92
2023-03-02T01:45:36.982Z,75.81
2023-03-02T01:46:09.579Z,75.92
2023-03-02T01:46:41.943Z,76.02
2023-03-02T01:47:14.404Z,75.92
2023-03-02T01:47:47.034Z,75.70
2023-03-02T01:48:19.457Z,75.81
2023-03-02T01:48:51.945Z,75.92
2023-03-02T01:49:24.473Z,75.81
2023-03-02T01:49:56.949Z,75.70
2023-03-02T01:50:29.422Z,75.70
2023-03-02T01:51:01.877Z,75.92
2023-03-02T01:51:34.340Z,76.02
2023-03-02T01:52:06.803Z,75.81
2023-03-02T01:52:39.292Z,75.70
2023-03-02T01:53:11.741Z,75.70
2023-03-02T01:53:44.207Z,75.81
2023-03-02T01:54:16.704Z,75.81
2023-03-02T01:54:49.201Z,75.81
2023-03-02T01:55:21.680Z,76.02
2023-03-02T01:55:54.176Z,76.23
2023-03-02T01:56:26.676Z,76.02
2023-03-02T01:56:59.156Z,76.02
2023-03-02T01:57:31.706Z,75.95
2023-03-02T01:58:04.172Z,76.06
2023-03-02T01:58:36.622Z,76.06
2023-03-02T01:59:09.087Z,76.26
2023-03-02T01:59:41.594Z,76.37
2023-03-02T02:00:14.070Z,76.37
2023-03-02T02:00:46.610Z,76.37
2023-03-02T02:01:19.294Z,76.37
2023-03-02T02:01:51.829Z,76.47
2023-03-02T02:02:24.314Z,76.57
2023-03-02T02:02:56.846Z,76.57
2023-03-02T02:03:29.366Z,76.47
2023-03-02T02:04:01.948Z,76.37
2023-03-02T02:04:34.360Z,76.02
2023-03-02T02:05:06.816Z,75.95
2023-03-02T02:05:39.290Z,76.06
2023-03-02T02:06:11.784Z,76.16
2023-03-02T02:06:44.244Z,76.16
2023-03-02T02:07:16.733Z,76.26
2023-03-02T02:07:49.213Z,76.47
2023-03-02T02:08:21.708Z,76.57
2023-03-02T02:08:54.175Z,76.57
2023-03-02T02:09:26.621Z,76.68
2023-03-02T02:09:59.100Z,76.79
2023-03-02T02:10:31.571Z,76.89
2023-03-02T02:11:04.067Z,76.89
2023-03-02T02:11:36.517Z,77.00
2023-03-02T02:12:08.989Z,77.10
2023-03-02T02:12:41.434Z,77.00
2023-03-02T02:13:13.900Z,77.00
2023-03-02T02:13:46.362Z,77.10
2023-03-02T02:14:18.821Z,77.10
2023-03-02T02:14:51.270Z,77.00
2023-03-02T02:15:23.749Z,77.20
2023-03-02T02:15:56.267Z,77.20
2023-03-02T02:16:28.804Z,77.10
2023-03-02T02:17:01.301Z,77.20
2023-03-02T02:17:33.676Z,77.10
2023-03-02T02:18:06.160Z,77.00
2023-03-02T02:18:38.689Z,76.89
2023-03-02T02:19:11.170Z,77.00
2023-03-02T02:19:43.685Z,76.79
2023-03-02T02:20:16.137Z,76.79
2023-03-02T02:20:48.601Z,76.68
2023-03-02T02:21:21.114Z,76.89
2023-03-02T02:21:53.561Z,76.79
2023-03-02T02:22:26.031Z,77.00
2023-03-02T02:22:58.546Z,77.10
2023-03-02T02:23:30.992Z,77.24
2023-03-02T02:24:03.603Z,77.31
2023-03-02T02:24:36.070Z,77.34
2023-03-02T02:25:08.554Z,77.45
2023-03-02T02:25:41.033Z,77.34
2023-03-02T02:26:13.483Z,77.14
2023-03-02T02:26:45.969Z,77.24
2023-03-02T02:27:18.477Z,77.45
2023-03-02T02:27:50.994Z,77.66
2023-03-02T02:28:23.593Z,77.76
2023-03-02T02:28:56.143Z,77.76
2023-03-02T02:29:28.607Z,77.76
2023-03-02T02:30:01.100Z,77.76
2023-03-02T02:30:33.589Z,77.56
2023-03-02T02:31:06.079Z,77.66
2023-03-02T02:31:38.554Z,77.45
2023-03-02T02:32:11.119Z,77.45
2023-03-02T02:32:43.474Z,77.34
2023-03-02T02:33:15.937Z,77.24
2023-03-02T02:33:48.400Z,77.14
2023-03-02T02:34:20.872Z,76.93
2023-03-02T02:34:53.338Z,77.34
2023-03-02T02:35:25.829Z,77.76
2023-03-02T02:35:58.357Z,77.87
2023-03-02T02:36:31.013Z,77.91
2023-03-02T02:37:03.222Z,78.11
2023-03-02T02:37:35.854Z,78.43
2023-03-02T02:38:08.340Z,78.74
2023-03-02T02:38:40.815Z,78.85
2023-03-02T02:39:13.257Z,78.85
2023-03-02T02:39:45.737Z,78.64
2023-03-02T02:40:18.193Z,78.74
2023-03-02T02:40:50.647Z,78.64
2023-03-02T02:41:23.094Z,78.85
2023-03-02T02:41:55.576Z,79.06
2023-03-02T02:42:28.966Z,79.06
2023-03-02T02:43:01.507Z,78.85
2023-03-02T02:43:33.992Z,78.85
2023-03-02T02:44:06.451Z,78.74
2023-03-02T02:44:38.982Z,78.74
2023-03-02T02:45:11.430Z,78.64
2023-03-02T02:45:43.901Z,78.64
2023-03-02T02:46:16.393Z,78.85
2023-03-02T02:46:48.835Z,78.96
2023-03-02T02:47:21.282Z,78.74
2023-03-02T02:47:53.823Z,78.74
2023-03-02T02:48:26.279Z,78.74
2023-03-02T02:48:58.806Z,78.74
2023-03-02T02:49:31.249Z,78.74
2023-03-02T02:50:03.743Z,78.74
2023-03-02T02:50:36.212Z,78.53
2023-03-02T02:51:08.691Z,78.71
2023-03-02T02:51:41.144Z,78.64
2023-03-02T02:52:13.587Z,78.64
2023-03-02T02:52:46.051Z,78.64
2023-03-02T02:53:18.573Z,78.74
2023-03-02T02:53:51.070Z,78.64
2023-03-02T02:54:23.615Z,78.64
2023-03-02T02:54:56.074Z,78.53
2023-03-02T02:55:28.522Z,78.53
2023-03-02T02:56:00.965Z,78.74
2023-03-02T02:56:33.764Z,78.85
2023-03-02T02:57:05.883Z,78.81
2023-03-02T02:57:38.450Z,78.81
2023-03-02T02:58:11.012Z,78.85
2023-03-02T02:58:43.586Z,78.81
2023-03-02T02:59:16.041Z,78.74
2023-03-02T02:59:48.515Z,78.85
2023-03-02T03:00:21.069Z,78.96
2023-03-02T03:00:53.556Z,79.06
2023-03-02T03:01:26.226Z,79.06
2023-03-02T03:01:58.483Z,79.38
2023-03-02T03:02:31.103Z,79.48
2023-03-02T03:03:03.651Z,79.58
2023-03-02T03:03:36.101Z,79.48
2023-03-02T03:04:08.585Z,79.58
2023-03-02T03:04:41.070Z,79.58
2023-03-02T03:05:13.485Z,79.79
2023-03-02T03:05:45.954Z,79.90
2023-03-02T03:06:18.437Z,80.00
2023-03-02T03:06:50.876Z,80.21
2023-03-02T03:07:23.342Z,80.21
2023-03-02T03:07:55.799Z,80.11
2023-03-02T03:08:28.253Z,80.21
2023-03-02T03:09:00.737Z,80.32
2023-03-02T03:09:33.221Z,80.42
2023-03-02T03:10:05.649Z,80.53
2023-03-02T03:10:38.111Z,80.53
2023-03-02T03:11:10.568Z,80.63
2023-03-02T03:11:43.029Z,80.63
2023-03-02T03:12:15.476Z,80.63
2023-03-02T03:12:47.942Z,80.63
2023-03-02T03:13:20.421Z,80.53
2023-03-02T03:13:52.874Z,80.63
2023-03-02T03:14:25.346Z,80.74
2023-03-02T03:14:57.796Z,80.84
2023-03-02T03:15:30.316Z,80.84
2023-03-02T03:16:02.857Z,81.05
2023-03-02T03:16:35.629Z,81.16
2023-03-02T03:17:07.907Z,81.26
2023-03-02T03:17:40.257Z,81.37
2023-03-02T03:18:12.721Z,81.57
2023-03-02T03:18:45.208Z,81.57
2023-03-02T03:19:17.668Z,81.57
2023-03-02T03:19:50.242Z,81.57
2023-03-02T03:20:22.859Z,81.82
2023-03-02T03:20:55.342Z,82.10
2023-03-02T03:21:27.813Z,82.20
2023-03-02T03:22:00.289Z,82.31
2023-03-02T03:22:32.776Z,82.42
2023-03-02T03:23:05.238Z,82.42
2023-03-02T03:23:37.739Z,82.42
2023-03-02T03:24:10.206Z,82.42
2023-03-02T03:24:42.761Z,82.31
2023-03-02T03:25:15.237Z,82.42
2023-03-02T03:25:47.690Z,82.62
2023-03-02T03:26:20.153Z,82.73
2023-03-02T03:26:52.623Z,82.73
2023-03-02T03:27:25.098Z,82.83
2023-03-02T03:27:57.555Z,82.83
2023-03-02T03:28:30.030Z,82.83
2023-03-02T03:29:02.498Z,82.83
2023-03-02T03:29:35.060Z,82.94
2023-03-02T03:30:07.508Z,83.04
2023-03-02T03:30:39.983Z,83.15
2023-03-02T03:31:12.494Z,83.25
2023-03-02T03:31:44.932Z,83.36
2023-03-02T03:32:17.450Z,83.25
2023-03-02T03:32:49.891Z,83.36
2023-03-02T03:33:22.390Z,83.36
2023-03-02T03:33:54.910Z,83.47
2023-03-02T03:34:27.367Z,83.47
2023-03-02T03:34:59.828Z,83.57
2023-03-02T03:35:32.436Z,83.78
2023-03-02T03:36:04.862Z,83.88
2023-03-02T03:36:37.323Z,83.88
2023-03-02T03:37:09.797Z,83.98
2023-03-02T03:37:42.357Z,83.98
2023-03-02T03:38:14.832Z,83.88
2023-03-02T03:38:47.320Z,83.98
2023-03-02T03:39:19.834Z,84.09
2023-03-02T03:39:52.305Z,84.30
2023-03-02T03:40:24.785Z,84.30
2023-03-02T03:40:57.308Z,84.30
2023-03-02T03:41:29.723Z,84.41
2023-03-02T03:42:02.184Z,84.30
2023-03-02T03:42:34.656Z,84.30
2023-03-02T03:43:07.183Z,84.30
2023-03-02T03:43:39.644Z,84.20
2023-03-02T03:44:12.093Z,84.30
2023-03-02T03:44:44.555Z,84.41
2023-03-02T03:45:17.011Z,84.41
2023-03-02T03:45:49.455Z,84.41
2023-03-02T03:46:21.961Z,84.51
2023-03-02T03:46:54.393Z,84.41
2023-03-02T03:47:26.832Z,84.30
2023-03-02T03:47:59.309Z,84.41
2023-03-02T03:48:31.778Z,84.62
2023-03-02T03:49:04.247Z,84.72
2023-03-02T03:49:36.729Z,84.72
2023-03-02T03:50:09.223Z,84.83
2023-03-02T03:50:41.742Z,84.93
2023-03-02T03:51:14.277Z,85.08
2023-03-02T03:51:46.706Z,85.14
2023-03-02T03:52:19.166Z,85.28
2023-03-02T03:52:51.638Z,85.49
2023-03-02T03:53:24.130Z,85.60
2023-03-02T03:53:56.613Z,85.81
2023-03-02T03:54:29.072Z,85.91
2023-03-02T03:55:01.588Z,86.02
2023-03-02T03:55:34.100Z,86.12
2023-03-02T03:56:06.568Z,86.12
2023-03-02T03:56:39.024Z,86.23
2023-03-02T03:57:11.550Z,86.12
2023-03-02T03:57:44.041Z,86.12
2023-03-02T03:58:16.610Z,86.23
2023-03-02T03:58:49.083Z,86.44
2023-03-02T03:59:21.503Z,86.54
2023-03-02T03:59:53.949Z,86.65
2023-03-02T04:00:26.468Z,86.76
2023-03-02T04:00:58.988Z,86.86
2023-03-02T04:01:31.566Z,86.86
2023-03-02T04:02:03.990Z,86.96
2023-03-02T04:02:36.504Z,87.07
2023-03-02T04:03:08.938Z,87.17
2023-03-02T04:03:41.401Z,87.17
2023-03-02T04:04:13.897Z,87.28
2023-03-02T04:04:46.343Z,87.17
2023-03-02T04:05:18.871Z,87.17
2023-03-02T04:05:51.375Z,87.38
2023-03-02T04:06:23.866Z,87.49
2023-03-02T04:06:56.426Z,87.49
2023-03-02T04:07:28.954Z,87.49
2023-03-02T04:08:01.445Z,87.49
2023-03-02T04:08:33.940Z,87.49
2023-03-02T04:09:06.403Z,87.59
2023-03-02T04:09:38.854Z,87.59
2023-03-02T04:10:11.370Z,87.80
2023-03-02T04:10:43.834Z,87.70
2023-03-02T04:11:16.319Z,87.59
2023-03-02T04:11:48.796Z,87.49
2023-03-02T04:12:21.271Z,87.38
2023-03-02T04:12:53.734Z,87.59
2023-03-02T04:13:26.202Z,87.91
2023-03-02T04:13:58.656Z,88.01
2023-03-02T04:14:31.211Z,88.12
2023-03-02T04:15:03.709Z,88.12
2023-03-02T04:15:36.238Z,88.01
2023-03-02T04:16:08.773Z,88.01
2023-03-02T04:16:41.155Z,88.01
2023-03-02T04:17:13.613Z,87.80
2023-03-02T04:17:46.112Z,87.38
2023-03-02T04:18:18.540Z,87.38
2023-03-02T04:18:51.031Z,87.38
2023-03-02T04:19:23.494Z,87.28
2023-03-02T04:19:55.960Z,87.17
2023-03-02T04:20:28.472Z,87.28
2023-03-02T04:21:00.934Z,87.59
2023-03-02T04:21:33.784Z,87.95
2023-03-02T04:22:06.243Z,88.47
2023-03-02T04:22:38.726Z,88.57
2023-03-02T04:23:11.185Z,88.89
2023-03-02T04:23:43.628Z,89.00
2023-03-02T04:24:16.090Z,89.21
2023-03-02T04:24:48.539Z,89.52
2023-03-02T04:25:21.030Z,89.73
2023-03-02T04:25:53.477Z,89.62
2023-03-02T04:26:25.945Z,89.62
2023-03-02T04:26:58.430Z,89.52
2023-03-02T04:27:30.864Z,89.62
2023-03-02T04:28:03.311Z,89.94
2023-03-02T04:28:35.756Z,89.84
2023-03-02T04:29:08.214Z,89.84
2023-03-02T04:29:40.676Z,89.62
2023-03-02T04:30:13.128Z,89.52
2023-03-02T04:30:45.619Z,89.31
2023-03-02T04:31:18.119Z,89.31
2023-03-02T04:31:50.650Z,89.42
2023-03-02T04:32:23.089Z,89.52
2023-03-02T04:32:55.476Z,89.73
2023-03-02T04:33:27.928Z,89.52
2023-03-02T04:34:00.366Z,89.62
2023-03-02T04:34:32.835Z,89.62
2023-03-02T04:35:05.287Z,89.52
2023-03-02T04:35:37.796Z,89.52
2023-03-02T04:36:10.233Z,89.84
2023-03-02T04:36:42.707Z,90.15
2023-03-02T04:37:15.158Z,90.15
2023-03-02T04:37:47.616Z,90.15
2023-03-02T04:38:20.074Z,90.15
2023-03-02T04:38:52.533Z,90.25
2023-03-02T04:39:25.031Z,89.94
2023-03-02T04:39:57.541Z,89.73
2023-03-02T04:40:29.982Z,89.62
2023-03-02T04:41:02.434Z,89.77
2023-03-02T04:41:34.927Z,90.05
2023-03-02T04:42:07.357Z,90.30
2023-03-02T04:42:39.833Z,90.51
2023-03-02T04:43:12.270Z,90.61
2023-03-02T04:43:44.774Z,90.61
2023-03-02T04:44:17.257Z,90.40
2023-03-02T04:44:49.739Z,90.51
2023-03-02T04:45:22.192Z,90.51
2023-03-02T04:45:54.646Z,90.61
2023-03-02T04:46:27.128Z,90.92
2023-03-02T04:46:59.621Z,91.14
2023-03-02T04:47:32.052Z,91.35
2023-03-02T04:48:04.483Z,91.66
2023-03-02T04:48:36.945Z,91.87
2023-03-02T04:49:09.407Z,91.97
2023-03-02T04:49:41.872Z,91.97
2023-03-02T04:50:14.344Z,92.19
2023-03-02T04:50:46.776Z,92.29
2023-03-02T04:51:19.251Z,92.29
2023-03-02T04:51:51.732Z,92.29
2023-03-02T04:52:24.180Z,92.50
2023-03-02T04:52:56.686Z,92.50
2023-03-02T04:53:29.191Z,92.61
2023-03-02T04:54:01.793Z,92.82
2023-03-02T04:54:34.247Z,92.92
2023-03-02T04:55:06.709Z,92.82
2023-03-02T04:55:39.160Z,92.92
2023-03-02T04:56:11.609Z,92.71
2023-03-02T04:56:44.077Z,92.61
2023-03-02T04:57:16.574Z,92.50
2023-03-02T04:57:49.032Z,92.40
2023-03-02T04:58:21.496Z,92.29
2023-03-02T04:58:53.960Z,92.40
2023-03-02T04:59:26.430Z,92.40
2023-03-02T04:59:58.945Z,92.50
2023-03-02T05:00:33.492Z,92.61
2023-03-02T05:01:03.869Z,92.61
2023-03-02T05:01:36.326Z,92.82
2023-03-02T05:02:08.998Z,92.82
2023-03-02T05:02:41.313Z,92.82
2023-03-02T05:03:13.754Z,93.02
2023-03-02T05:03:46.196Z,93.24
2023-03-02T05:04:18.698Z,93.34
2023-03-02T05:04:51.154Z,93.55
2023-03-02T05:05:23.607Z,93.66
2023-03-02T05:05:56.108Z,93.66
2023-03-02T05:06:28.567Z,93.76
2023-03-02T05:07:01.031Z,93.87
2023-03-02T05:07:33.482Z,93.87
2023-03-02T05:08:05.948Z,93.97
2023-03-02T05:08:38.429Z,93.97
2023-03-02T05:09:10.931Z,93.97
2023-03-02T05:09:43.433Z,93.97
2023-03-02T05:10:15.872Z,93.97
2023-03-02T05:10:48.352Z,93.97
2023-03-02T05:11:20.805Z,93.97
2023-03-02T05:11:53.337Z,93.87
2023-03-02T05:12:25.806Z,93.87
2023-03-02T05:12:58.296Z,93.97
2023-03-02T05:13:30.745Z,93.97
2023-03-02T05:14:03.265Z,93.97
2023-03-02T05:14:35.763Z,94.08
2023-03-02T05:15:08.199Z,94.08
2023-03-02T05:15:40.657Z,94.08
2023-03-02T05:16:13.211Z,94.08
2023-03-02T05:16:45.567Z,94.08
2023-03-02T05:17:18.036Z,94.18
2023-03-02T05:17:50.498Z,94.18
2023-03-02T05:18:22.997Z,94.08
2023-03-02T05:18:55.500Z,94.18
2023-03-02T05:19:27.969Z,94.18
2023-03-02T05:20:00.458Z,94.18
2023-03-02T05:20:32.929Z,94.29
2023-03-02T05:21:05.503Z,94.39
2023-03-02T05:21:38.000Z,94.60
2023-03-02T05:22:10.460Z,94.71
2023-03-02T05:22:42.919Z,94.81
2023-03-02T05:23:15.398Z,94.71
2023-03-02T05:23:47.877Z,94.71
2023-03-02T05:24:20.366Z,94.81
2023-03-02T05:24:52.947Z,94.81
2023-03-02T05:25:25.426Z,94.71
2023-03-02T05:25:57.899Z,94.60
2023-03-02T05:26:30.565Z,94.49
2023-03-02T05:27:02.880Z,94.60
2023-03-02T05:27:35.350Z,94.60
2023-03-02T05:28:07.794Z,94.49
2023-03-02T05:28:40.286Z,94.60
2023-03-02T05:29:12.752Z,94.60
2023-03-02T05:29:45.221Z,94.60
2023-03-02T05:30:17.718Z,94.71
2023-03-02T05:30:50.181Z,94.71
2023-03-02T05:31:22.705Z,94.60
2023-03-02T05:31:55.242Z,94.71
2023-03-02T05:32:27.645Z,94.60
2023-03-02T05:33:00.118Z,94.49
2023-03-02T05:33:32.533Z,94.39
2023-03-02T05:34:05.028Z,94.39
2023-03-02T05:34:37.548Z,94.49
2023-03-02T05:35:10.074Z,94.49
2023-03-02T05:35:42.572Z,94.39
2023-03-02T05:36:16.065Z,94.39
2023-03-02T05:36:47.444Z,94.39
2023-03-02T05:37:19.901Z,94.39
2023-03-02T05:37:52.384Z,94.29
2023-03-02T05:38:24.882Z,94.29
2023-03-02T05:38:57.344Z,94.39
2023-03-02T05:39:29.832Z,94.49
2023-03-02T05:40:02.331Z,94.49
2023-03-02T05:40:34.770Z,94.49
2023-03-02T05:41:07.254Z,94.60
2023-03-02T05:41:39.720Z,94.49
2023-03-02T05:42:12.282Z,94.54
2023-03-02T05:42:44.756Z,94.54
2023-03-02T05:43:17.249Z,94.65
2023-03-02T05:43:49.706Z,94.54
2023-03-02T05:44:22.195Z,94.65
2023-03-02T05:44:54.702Z,94.85
2023-03-02T05:45:27.199Z,94.96
2023-03-02T05:45:59.686Z,95.06
2023-03-02T05:46:32.411Z,95.28
2023-03-02T05:47:04.652Z,95.38
2023-03-02T05:47:37.173Z,95.48
2023-03-02T05:48:09.629Z,95.48
2023-03-02T05:48:42.088Z,95.38
2023-03-02T05:49:14.599Z,95.38
2023-03-02T05:49:47.054Z,95.28
2023-03-02T05:50:19.525Z,95.38
2023-03-02T05:50:52.043Z,95.38
2023-03-02T05:51:24.508Z,95.48
2023-03-02T05:51:56.975Z,95.59
2023-03-02T05:52:29.502Z,95.59
2023-03-02T05:53:01.998Z,95.80
2023-03-02T05:53:34.424Z,95.90
2023-03-02T05:54:06.930Z,95.90
2023-03-02T05:54:39.358Z,95.90
2023-03-02T05:55:11.848Z,95.90
2023-03-02T05:55:44.285Z,95.90
2023-03-02T05:56:16.744Z,96.01
2023-03-02T05:56:50.278Z,96.01
2023-03-02T05:57:21.720Z,96.12
2023-03-02T05:57:54.349Z,96.12
2023-03-02T05:58:26.840Z,96.12
2023-03-02T05:58:59.322Z,96.33
2023-03-02T05:59:31.811Z,96.33
2023-03-02T06:00:04.319Z,96.33
2023-03-02T06:00:36.814Z,96.22
2023-03-02T06:01:09.282Z,96.22
2023-03-02T06:01:41.817Z,96.22
2023-03-02T06:02:14.320Z,96.33
2023-03-02T06:02:46.754Z,96.53
2023-03-02T06:03:19.328Z,96.53
2023-03-02T06:03:51.689Z,96.43
2023-03-02T06:04:24.156Z,96.43
2023-03-02T06:04:56.661Z,96.33
2023-03-02T06:05:29.153Z,96.33
2023-03-02T06:06:01.688Z,96.33
2023-03-02T06:06:34.387Z,96.53
2023-03-02T06:07:06.621Z,96.64
2023-03-02T06:07:39.116Z,96.75
2023-03-02T06:08:11.575Z,96.75
2023-03-02T06:08:44.038Z,96.75
2023-03-02T06:09:16.501Z,96.75
2023-03-02T06:09:49.002Z,96.85
2023-03-02T06:10:21.839Z,96.85
2023-03-02T06:10:54.316Z,96.85
2023-03-02T06:11:26.805Z,96.85
2023-03-02T06:11:59.317Z,96.75
2023-03-02T06:12:31.787Z,96.85
2023-03-02T06:13:04.275Z,96.75
2023-03-02T06:13:36.767Z,96.75
2023-03-02T06:14:09.230Z,96.85
2023-03-02T06:14:41.739Z,96.85
2023-03-02T06:15:14.249Z,96.85
2023-03-02T06:15:46.719Z,96.95
2023-03-02T06:16:20.951Z,97.06
2023-03-02T06:16:53.518Z,97.06
2023-03-02T06:17:25.937Z,97.06
2023-03-02T06:17:58.453Z,97.06
2023-03-02T06:18:30.947Z,97.06
2023-03-02T06:19:03.414Z,97.17
2023-03-02T06:19:35.898Z,97.06
2023-03-02T06:20:08.369Z,97.06
2023-03-02T06:20:40.851Z,97.06
2023-03-02T06:21:13.396Z,97.06
2023-03-02T06:21:45.944Z,97.17
2023-03-02T06:22:18.530Z,97.06
2023-03-02T06:22:51.130Z,96.95
2023-03-02T06:23:23.638Z,96.85
2023-03-02T06:23:56.133Z,96.85
2023-03-02T06:24:28.625Z,96.95
2023-03-02T06:25:01.086Z,97.17
2023-03-02T06:25:33.573Z,97.06
2023-03-02T06:26:06.068Z,97.06
2023-03-02T06:26:38.584Z,96.95
2023-03-02T06:27:11.071Z,97.06
2023-03-02T06:27:43.577Z,96.95
2023-03-02T06:28:16.042Z,96.85
2023-03-02T06:28:53.580Z,96.85
2023-03-02T06:29:20.999Z,96.75
2023-03-02T06:29:53.493Z,96.64
2023-03-02T06:30:25.978Z,96.43
2023-03-02T06:30:58.509Z,96.43
2023-03-02T06:31:30.985Z,96.22
2023-03-02T06:32:03.564Z,96.33
2023-03-02T06:32:36.065Z,96.33
2023-03-02T06:33:08.553Z,96.33
2023-03-02T06:33:41.019Z,96.33
2023-03-02T06:34:13.541Z,96.43
2023-03-02T06:34:46.017Z,96.43
2023-03-02T06:35:18.563Z,96.28
2023-03-02T06:35:51.068Z,96.28
2023-03-02T06:36:23.486Z,96.28
2023-03-02T06:36:55.938Z,96.28
2023-03-02T06:37:28.391Z,96.28
2023-03-02T06:38:00.850Z,96.49
2023-03-02T06:38:33.300Z,96.70
2023-03-02T06:39:05.764Z,96.59
2023-03-02T06:39:38.261Z,96.70
2023-03-02T06:40:10.699Z,96.70
2023-03-02T06:40:43.160Z,96.81
2023-03-02T06:41:15.663Z,96.81
2023-03-02T06:41:48.090Z,96.91
2023-03-02T06:42:20.595Z,97.02
2023-03-02T06:42:53.054Z,97.02
2023-03-02T06:43:25.495Z,97.02
2023-03-02T06:43:57.954Z,96.91
2023-03-02T06:44:30.407Z,96.81
2023-03-02T06:45:02.860Z,96.70
2023-03-02T06:45:35.358Z,96.59
2023-03-02T06:46:08.027Z,96.59
2023-03-02T06:46:40.332Z,96.59
2023-03-02T06:47:12.797Z,96.59
2023-03-02T06:47:45.259Z,96.49
2023-03-02T06:48:17.709Z,96.45
2023-03-02T06:48:50.162Z,96.49
2023-03-02T06:49:22.649Z,96.49
2023-03-02T06:49:55.112Z,96.59
2023-03-02T06:50:27.651Z,96.70
2023-03-02T06:51:00.123Z,96.91
2023-03-02T06:51:32.596Z,97.02
2023-03-02T06:52:05.056Z,97.08
2023-03-02T06:52:37.574Z,97.08
2023-03-02T06:53:10.067Z,97.08
2023-03-02T06:53:42.498Z,96.97
2023-03-02T06:54:14.973Z,96.97
2023-03-02T06:54:47.423Z,97.08
2023-03-02T06:55:19.933Z,97.08
2023-03-02T06:55:52.405Z,97.08
2023-03-02T06:56:24.897Z,97.08
2023-03-02T06:56:57.368Z,96.97
2023-03-02T06:57:29.871Z,97.08
2023-03-02T06:58:02.320Z,97.08